Thomson Spirit — 9HA2336 — position and weather

sailwx.info

Track history (hours):
 
Tides and Currents Weather Stations Pressure Air Temp Water Temp Dewpoint Dewpoint Depression Visibility Wind Speed Wind Dir Waves Ship Positions

Thomson Spirit

Last reported at 2015-Jul-07 06:33 UTC. Time now 2015-Jul-08 04:24 UTC.
Position N 37°46' E 026°25'.

Length 214 m; draft 7.8 m.

Type: Passenger vessel. MMSI: 248368000.

Date/timePositionNaut miles runAvg speedWind from/ knotsBaromVisibWave heightAir tempDewpointWater temp
2015-Jul-07 06:33N 37°46' E 026°25'77 2.1
2015-Jul-05 18:25N 36°29' E 026°15'1112.9
2015-Jul-05 17:33N 36°30' E 026°01'1312.8
2015-Jul-05 16:33N 36°30' E 025°45'1312.7
2015-Jul-05 15:33N 36°31' E 025°29'7 6.5
2015-Jul-05 14:33N 36°25' E 025°25'0 0.3
2015-Jul-05 13:32N 36°25' E 025°25'0 0.0
2015-Jul-05 12:33N 36°25' E 025°25'0 0.0
2015-Jul-05 11:33N 36°25' E 025°25'0 0.0
2015-Jul-05 10:33N 36°25' E 025°25'0 0.0
2015-Jul-05 09:33N 36°25' E 025°25'0 0.0
2015-Jul-05 08:32N 36°25' E 025°25'0 0.0
2015-Jul-05 07:32N 36°25' E 025°25'0 0.0
2015-Jul-05 06:32N 36°25' E 025°25'0 0.0
2015-Jul-05 05:32N 36°25' E 025°25'0 0.0
2015-Jul-05 04:33N 36°25' E 025°25'0 0.0
2015-Jul-05 03:32N 36°25' E 025°25'5 4.6
2015-Jul-05 02:33N 36°23' E 025°20'1111.5
2015-Jul-05 01:33N 36°29' E 025°07'1212.2
2015-Jul-05 00:33N 36°35' E 024°54'8512.2
2015-Jul-04 17:33N 37°39' E 023°44'1212.2
2015-Jul-04 16:33N 37°50' E 023°37'6 6.4
2015-Jul-04 15:33N 37°56' E 023°38'0 0.0
2015-Jul-04 14:33N 37°56' E 023°38'0 0.0
2015-Jul-04 13:33N 37°56' E 023°38'0 0.0
2015-Jul-04 12:33N 37°56' E 023°38'0 0.0
2015-Jul-04 11:33N 37°56' E 023°38'0 0.0
2015-Jul-04 10:33N 37°56' E 023°38'0 0.0
2015-Jul-04 09:33N 37°56' E 023°38'0 0.0
2015-Jul-04 08:33N 37°56' E 023°38'0 0.0
2015-Jul-04 07:33N 37°56' E 023°38'0 0.0
2015-Jul-04 06:33N 37°56' E 023°38'0 0.0
2015-Jul-04 05:33N 37°56' E 023°38'0 0.0
2015-Jul-04 04:33N 37°56' E 023°38'0 0.0
2015-Jul-04 03:33N 37°56' E 023°38'3 3.0
2015-Jul-04 02:33N 37°53' E 023°38'1312.5
2015-Jul-04 01:33N 37°42' E 023°45'5115.2
2015-Jul-03 22:14N 37°23' E 024°44'1015.4
2015-Jul-03 21:33N 37°20' E 024°56'1615.7
2015-Jul-03 20:34N 37°21' E 025°16'1615.6
2015-Jul-03 19:33N 37°23' E 025°36'1615.7
2015-Jul-03 18:33N 37°27' E 025°55'3115.6
2015-Jul-03 16:33N 37°43' E 026°29'  
2015-Jun-28 05:33N 34°14' E 032°41'4112.1
2015-Jun-28 02:10N 33°50' E 033°21'712.0
2015-Jun-28 01:33N 33°46' E 033°28'2412.1
2015-Jun-27 23:33N 33°32' E 033°52'1412.3
2015-Jun-27 22:27N 33°24' E 034°05'1112.2
2015-Jun-27 21:33N 33°17' E 034°16'1211.9
2015-Jun-27 20:33N 33°10' E 034°27'1212.2
2015-Jun-27 19:33N 33°03' E 034°39'1212.5
2015-Jun-27 18:34N 32°57' E 034°52'10 2.3
2015-Jun-27 14:12N 32°49' E 035°00'0 0.0
2015-Jun-27 13:33N 32°49' E 035°00'  
Track history (hours):
 
Tides and Currents Weather Stations Pressure Air Temp Water Temp Dewpoint Dewpoint Depression Visibility Wind Speed Wind Dir Waves Ship Positions

Thomson Spirit

Last reported at 2015-Jul-07 06:33 UTC. Time now 2015-Jul-08 04:24 UTC.
Position N 37°46' E 026°25'.

Length 214 m; draft 7.8 m.

Type: Passenger vessel. MMSI: 248368000.

Date/timePositionNaut miles runAvg speedWind from/ knotsBaromVisibWave heightAir tempDewpointWater temp
2015-Jul-07 06:33N 37°46' E 026°25'77 2.1
2015-Jul-05 18:25N 36°29' E 026°15'1112.9
2015-Jul-05 17:33N 36°30' E 026°01'1312.8
2015-Jul-05 16:33N 36°30' E 025°45'1312.7
2015-Jul-05 15:33N 36°31' E 025°29'7 6.5
2015-Jul-05 14:33N 36°25' E 025°25'0 0.3
2015-Jul-05 13:32N 36°25' E 025°25'0 0.0
2015-Jul-05 12:33N 36°25' E 025°25'0 0.0
2015-Jul-05 11:33N 36°25' E 025°25'0 0.0
2015-Jul-05 10:33N 36°25' E 025°25'0 0.0
2015-Jul-05 09:33N 36°25' E 025°25'0 0.0
2015-Jul-05 08:32N 36°25' E 025°25'0 0.0
2015-Jul-05 07:32N 36°25' E 025°25'0 0.0
2015-Jul-05 06:32N 36°25' E 025°25'0 0.0
2015-Jul-05 05:32N 36°25' E 025°25'0 0.0
2015-Jul-05 04:33N 36°25' E 025°25'0 0.0
2015-Jul-05 03:32N 36°25' E 025°25'5 4.6
2015-Jul-05 02:33N 36°23' E 025°20'1111.5
2015-Jul-05 01:33N 36°29' E 025°07'1212.2
2015-Jul-05 00:33N 36°35' E 024°54'8512.2
2015-Jul-04 17:33N 37°39' E 023°44'1212.2
2015-Jul-04 16:33N 37°50' E 023°37'6 6.4
2015-Jul-04 15:33N 37°56' E 023°38'0 0.0
2015-Jul-04 14:33N 37°56' E 023°38'0 0.0
2015-Jul-04 13:33N 37°56' E 023°38'0 0.0
2015-Jul-04 12:33N 37°56' E 023°38'0 0.0
2015-Jul-04 11:33N 37°56' E 023°38'0 0.0
2015-Jul-04 10:33N 37°56' E 023°38'0 0.0
2015-Jul-04 09:33N 37°56' E 023°38'0 0.0
2015-Jul-04 08:33N 37°56' E 023°38'0 0.0
2015-Jul-04 07:33N 37°56' E 023°38'0 0.0
2015-Jul-04 06:33N 37°56' E 023°38'0 0.0
2015-Jul-04 05:33N 37°56' E 023°38'0 0.0
2015-Jul-04 04:33N 37°56' E 023°38'0 0.0
2015-Jul-04 03:33N 37°56' E 023°38'3 3.0
2015-Jul-04 02:33N 37°53' E 023°38'1312.5
2015-Jul-04 01:33N 37°42' E 023°45'5115.2
2015-Jul-03 22:14N 37°23' E 024°44'1015.4
2015-Jul-03 21:33N 37°20' E 024°56'1615.7
2015-Jul-03 20:34N 37°21' E 025°16'1615.6
2015-Jul-03 19:33N 37°23' E 025°36'1615.7
2015-Jul-03 18:33N 37°27' E 025°55'3115.6
2015-Jul-03 16:33N 37°43' E 026°29'  
2015-Jun-28 05:33N 34°14' E 032°41'4112.1
2015-Jun-28 02:10N 33°50' E 033°21'712.0
2015-Jun-28 01:33N 33°46' E 033°28'2412.1
2015-Jun-27 23:33N 33°32' E 033°52'1412.3
2015-Jun-27 22:27N 33°24' E 034°05'1112.2
2015-Jun-27 21:33N 33°17' E 034°16'1211.9
2015-Jun-27 20:33N 33°10' E 034°27'1212.2
2015-Jun-27 19:33N 33°03' E 034°39'1212.5
2015-Jun-27 18:34N 32°57' E 034°52'10 2.3
2015-Jun-27 14:12N 32°49' E 035°00'0 0.0
2015-Jun-27 13:33N 32°49' E 035°00'  

Dump ship's entire track history